Time;durP1;ratioP1;P1;durP2;ratioP2;P2;SDS_P1;SDS_P2;PMS_P1;PMS_P2;Temp;Humidity;BMP_temperature;BMP_pressure;BME280_temperature;BME280_humidity;BME280_pressure;Samples;Min_cycle;Max_cycle;Signal;HPM_P1;HPM_P2
2023/12/25 00:01:43;;;;;;;3.77;2.67;;;7.60;99.90;;;;;;482642;246;28094;-73
2023/12/25 00:03:44;;;;;;;4.30;2.50;;;7.50;99.90;;;;;;492931;240;27925;-74
2023/12/25 00:05:46;;;;;;;4.43;2.40;;;7.50;99.90;;;;;;482658;245;27870;-73
2023/12/25 00:07:47;;;;;;;3.63;2.20;;;7.50;99.90;;;;;;492957;240;27700;-73
2023/12/25 00:09:48;;;;;;;5.30;2.50;;;7.60;99.90;;;;;;482619;246;27814;-72
2023/12/25 00:11:49;;;;;;;4.30;2.50;;;7.60;99.90;;;;;;492986;240;27831;-73
2023/12/25 00:13:54;;;;;;;3.57;2.40;;;7.50;99.90;;;;;;482595;245;27890;-73
2023/12/25 00:15:52;;;;;;;3.10;2.20;;;7.50;99.90;;;;;;492713;241;27822;-72
2023/12/25 00:17:53;;;;;;;7.40;2.33;;;7.50;99.90;;;;;;492959;240;27889;-73
2023/12/25 00:19:54;;;;;;;5.00;2.60;;;7.50;99.90;;;;;;482688;246;27955;-75
2023/12/25 00:21:58;;;;;;;5.37;3.00;;;7.50;99.90;;;;;;492926;240;27911;-73
2023/12/25 00:23:57;;;;;;;4.47;2.40;;;7.50;99.90;;;;;;482443;246;28049;-73
2023/12/25 00:25:58;;;;;;;3.27;2.20;;;7.50;99.90;;;;;;492974;240;27991;-73
2023/12/25 00:27:59;;;;;;;6.17;2.73;;;7.40;99.90;;;;;;482625;245;27913;-73
2023/12/25 00:30:00;;;;;;;7.60;2.47;;;7.50;99.90;;;;;;493005;240;28175;-74
2023/12/25 00:32:02;;;;;;;3.47;2.10;;;7.40;99.90;;;;;;482666;246;28004;-73
2023/12/25 00:34:03;;;;;;;3.47;2.10;;;7.40;99.90;;;;;;492957;240;28526;-73
2023/12/25 00:36:04;;;;;;;5.20;2.60;;;7.40;99.90;;;;;;482657;244;28333;-73
2023/12/25 00:38:05;;;;;;;2.80;2.20;;;7.40;99.90;;;;;;492971;240;28409;-74
2023/12/25 00:40:07;;;;;;;7.60;2.13;;;7.40;99.90;;;;;;482709;245;27944;-75
2023/12/25 00:42:08;;;;;;;3.97;2.70;;;7.40;99.90;;;;;;493022;240;27943;-73
2023/12/25 00:44:09;;;;;;;2.30;2.07;;;7.40;99.90;;;;;;482622;245;27820;-73
2023/12/25 00:46:10;;;;;;;5.47;2.83;;;7.40;99.90;;;;;;492980;240;27909;-73
2023/12/25 00:48:12;;;;;;;2.90;2.03;;;7.40;99.90;;;;;;482684;245;27876;-73
2023/12/25 00:50:13;;;;;;;5.50;2.20;;;7.40;99.90;;;;;;493024;240;27420;-73
2023/12/25 00:52:17;;;;;;;2.90;2.20;;;7.40;99.90;;;;;;482685;246;28726;-73
2023/12/25 00:54:15;;;;;;;4.60;2.00;;;7.40;99.90;;;;;;492812;241;27626;-73
2023/12/25 00:56:17;;;;;;;2.37;2.20;;;7.40;99.90;;;;;;492997;240;27835;-75
2023/12/25 00:58:18;;;;;;;4.67;2.43;;;7.40;99.90;;;;;;482683;246;28746;-73
2023/12/25 01:00:19;;;;;;;2.23;2.03;;;7.40;99.90;;;;;;493011;240;27977;-73
2023/12/25 01:02:20;;;;;;;2.40;2.20;;;7.40;99.90;;;;;;482663;246;27715;-73
2023/12/25 01:04:22;;;;;;;4.27;2.33;;;7.40;99.90;;;;;;492935;240;27734;-72
2023/12/25 01:06:23;;;;;;;3.13;2.40;;;7.40;99.90;;;;;;482689;245;28444;-76
2023/12/25 01:08:24;;;;;;;3.67;2.40;;;7.40;99.90;;;;;;492997;240;28375;-72
2023/12/25 01:10:25;;;;;;;3.97;2.03;;;7.40;99.90;;;;;;482660;245;28574;-75
2023/12/25 01:12:27;;;;;;;4.20;2.43;;;7.40;99.90;;;;;;492960;240;28282;-73
2023/12/25 01:14:28;;;;;;;6.10;2.20;;;7.40;99.90;;;;;;482560;246;28488;-73
2023/12/25 01:16:29;;;;;;;2.17;2.00;;;7.40;99.90;;;;;;492998;240;27534;-75
2023/12/25 01:18:30;;;;;;;4.10;2.60;;;7.40;99.90;;;;;;482689;245;28044;-73
2023/12/25 01:20:32;;;;;;;4.17;2.37;;;7.40;99.90;;;;;;492932;240;27863;-73
2023/12/25 01:22:33;;;;;;;2.00;1.90;;;7.40;99.90;;;;;;482665;246;27848;-73
2023/12/25 01:24:34;;;;;;;2.95;2.30;;;7.40;99.90;;;;;;492818;240;28009;-73
2023/12/25 01:26:35;;;;;;;3.33;2.33;;;7.40;99.90;;;;;;482609;245;27536;-74
2023/12/25 01:28:37;;;;;;;5.07;2.40;;;7.40;99.90;;;;;;493054;240;27770;-72
2023/12/25 01:30:38;;;;;;;2.70;2.40;;;7.40;99.90;;;;;;482689;246;27888;-73
2023/12/25 01:32:39;;;;;;;5.33;1.93;;;7.40;99.90;;;;;;493043;240;27822;-73
2023/12/25 01:34:40;;;;;;;2.57;1.90;;;7.40;99.90;;;;;;482649;245;27974;-72
2023/12/25 01:36:42;;;;;;;2.30;1.90;;;7.40;99.90;;;;;;493000;240;27855;-73
2023/12/25 01:38:43;;;;;;;2.77;2.27;;;7.40;99.90;;;;;;482692;245;27811;-72
2023/12/25 01:40:44;;;;;;;3.03;1.90;;;7.40;99.90;;;;;;493016;240;28377;-73
2023/12/25 01:42:45;;;;;;;2.10;1.83;;;7.40;99.90;;;;;;482681;244;28443;-74
2023/12/25 01:44:47;;;;;;;2.63;2.13;;;7.40;99.90;;;;;;492988;240;28399;-72
2023/12/25 01:46:48;;;;;;;2.37;2.13;;;7.40;99.90;;;;;;482702;245;28470;-73
2023/12/25 01:48:49;;;;;;;2.40;2.10;;;7.40;99.90;;;;;;493013;240;28338;-72
2023/12/25 01:50:50;;;;;;;1.90;1.80;;;7.40;99.90;;;;;;482679;246;27963;-72
2023/12/25 01:52:52;;;;;;;3.13;1.73;;;7.40;99.90;;;;;;493050;240;27754;-75
2023/12/25 01:54:54;;;;;;;5.40;2.20;;;7.40;99.90;;;;;;482623;245;27837;-72
2023/12/25 01:56:54;;;;;;;3.43;2.07;;;7.40;99.90;;;;;;492901;240;27880;-73
2023/12/25 01:58:55;;;;;;;3.60;1.63;;;7.40;99.90;;;;;;482566;244;27567;-73
2023/12/25 02:00:56;;;;;;;2.00;1.90;;;7.40;99.90;;;;;;492947;240;27926;-73
2023/12/25 02:03:00;;;;;;;1.70;1.60;;;7.40;99.90;;;;;;482651;245;27887;-74
2023/12/25 02:04:59;;;;;;;4.53;2.10;;;7.40;99.90;;;;;;492903;240;27703;-72
2023/12/25 02:07:00;;;;;;;2.80;2.07;;;7.40;99.90;;;;;;482624;246;28037;-73
2023/12/25 02:09:01;;;;;;;2.70;1.60;;;7.40;99.90;;;;;;492991;240;27797;-73
2023/12/25 02:11:03;;;;;;;2.07;1.87;;;7.40;99.90;;;;;;482686;246;27857;-73
2023/12/25 02:13:05;;;;;;;2.40;1.70;;;7.40;99.90;;;;;;492923;240;27490;-74
2023/12/25 02:15:05;;;;;;;4.00;1.50;;;7.40;99.90;;;;;;482644;246;28002;-72
2023/12/25 02:17:06;;;;;;;1.73;1.63;;;7.40;99.90;;;;;;492975;240;27951;-73
2023/12/25 02:19:08;;;;;;;1.90;1.50;;;7.40;99.90;;;;;;482674;245;27977;-73
2023/12/25 02:21:09;;;;;;;2.03;1.93;;;7.40;99.90;;;;;;493009;240;28453;-73
2023/12/25 02:23:10;;;;;;;1.70;1.60;;;7.40;99.90;;;;;;482663;245;28444;-73
2023/12/25 02:25:11;;;;;;;5.80;1.90;;;7.40;99.90;;;;;;492932;240;28413;-73
2023/12/25 02:27:13;;;;;;;1.60;1.50;;;7.40;99.90;;;;;;482655;246;28355;-73
2023/12/25 02:29:14;;;;;;;1.50;1.40;;;7.40;99.90;;;;;;493045;240;27838;-74
2023/12/25 02:31:15;;;;;;;1.57;1.47;;;7.40;99.90;;;;;;482661;245;27747;-73
2023/12/25 02:33:16;;;;;;;1.60;1.47;;;7.40;99.90;;;;;;492905;240;28786;-73
2023/12/25 02:35:18;;;;;;;3.00;1.70;;;7.40;99.90;;;;;;482635;245;28037;-73
2023/12/25 02:37:19;;;;;;;2.60;1.60;;;7.40;99.90;;;;;;492985;240;28047;-73
2023/12/25 02:39:20;;;;;;;1.60;1.50;;;7.40;99.90;;;;;;482622;245;27877;-75
2023/12/25 02:41:21;;;;;;;1.93;1.70;;;7.40;99.90;;;;;;492987;240;27933;-74
2023/12/25 02:43:23;;;;;;;2.63;2.00;;;7.30;99.90;;;;;;482567;245;27803;-73
2023/12/25 02:45:24;;;;;;;1.67;1.57;;;7.30;99.90;;;;;;492959;240;28048;-73
2023/12/25 02:47:26;;;;;;;2.20;1.40;;;7.30;99.90;;;;;;482668;241;27681;-72
2023/12/25 02:49:26;;;;;;;2.53;1.50;;;7.30;99.90;;;;;;492959;240;27941;-74
2023/12/25 02:51:28;;;;;;;1.90;1.77;;;7.40;99.90;;;;;;482632;245;27641;-73
2023/12/25 02:53:31;;;;;;;3.80;1.63;;;7.40;99.90;;;;;;492945;240;28057;-73
2023/12/25 02:55:30;;;;;;;2.27;1.80;;;7.40;99.90;;;;;;482531;246;27881;-75
2023/12/25 02:57:31;;;;;;;1.87;1.77;;;7.30;99.90;;;;;;493008;240;28291;-73
2023/12/25 02:59:33;;;;;;;5.23;2.03;;;7.30;99.90;;;;;;482692;245;28156;-74
2023/12/25 03:01:34;;;;;;;1.50;1.40;;;7.30;99.90;;;;;;492965;240;28529;-72
2023/12/25 03:03:35;;;;;;;1.93;1.60;;;7.30;99.90;;;;;;482626;246;28595;-73
2023/12/25 03:05:36;;;;;;;2.27;1.70;;;7.30;99.90;;;;;;493004;240;28744;-74
2023/12/25 03:07:38;;;;;;;1.73;1.63;;;7.30;99.90;;;;;;482674;245;27868;-73
2023/12/25 03:09:39;;;;;;;2.30;1.80;;;7.30;99.90;;;;;;492919;240;27618;-73
2023/12/25 03:11:40;;;;;;;1.80;1.70;;;7.30;99.90;;;;;;482617;245;27926;-73
2023/12/25 03:13:41;;;;;;;2.63;1.57;;;7.30;99.90;;;;;;492916;240;27931;-72
2023/12/25 03:15:43;;;;;;;1.50;1.40;;;7.30;99.90;;;;;;482693;245;27976;-75
2023/12/25 03:17:44;;;;;;;3.83;1.67;;;7.30;99.90;;;;;;493004;240;27906;-73
2023/12/25 03:19:45;;;;;;;5.07;2.63;;;7.30;99.90;;;;;;482646;245;27904;-73
2023/12/25 03:21:46;;;;;;;1.70;1.53;;;7.30;99.90;;;;;;492954;240;28092;-73
2023/12/25 03:23:48;;;;;;;2.60;1.70;;;7.30;99.90;;;;;;492937;240;27886;-73
2023/12/25 03:25:49;;;;;;;1.97;1.80;;;7.30;99.90;;;;;;493000;240;27961;-74
2023/12/25 03:27:50;;;;;;;2.40;1.73;;;7.30;99.90;;;;;;482678;246;28021;-72
2023/12/25 03:29:51;;;;;;;2.00;1.77;;;7.30;99.90;;;;;;492979;240;27912;-72
2023/12/25 03:31:53;;;;;;;1.83;1.50;;;7.30;99.90;;;;;;482634;246;27858;-72
2023/12/25 03:33:54;;;;;;;2.83;1.83;;;7.30;99.90;;;;;;492928;240;27823;-73
2023/12/25 03:35:55;;;;;;;3.17;1.60;;;7.30;99.90;;;;;;482615;245;28455;-74
2023/12/25 03:37:56;;;;;;;1.80;1.60;;;7.30;99.90;;;;;;492932;240;27921;-73
2023/12/25 03:39:58;;;;;;;1.80;1.37;;;7.30;99.90;;;;;;482629;245;28783;-73
2023/12/25 03:41:59;;;;;;;1.40;1.30;;;7.30;99.90;;;;;;492994;240;28326;-76
2023/12/25 03:44:00;;;;;;;2.23;1.57;;;7.30;99.90;;;;;;482642;245;28975;-73
2023/12/25 03:46:01;;;;;;;1.53;1.43;;;7.30;99.90;;;;;;492990;240;27955;-73
2023/12/25 03:48:03;;;;;;;1.10;1.10;;;7.30;99.90;;;;;;482650;246;27586;-72
2023/12/25 03:50:04;;;;;;;1.37;1.37;;;7.30;99.90;;;;;;492989;240;28051;-73
2023/12/25 03:52:05;;;;;;;1.37;1.27;;;7.30;99.90;;;;;;482673;245;27906;-75
2023/12/25 03:54:06;;;;;;;1.17;1.17;;;7.30;99.90;;;;;;492968;240;27438;-73
2023/12/25 03:56:08;;;;;;;1.52;1.42;;;7.30;99.90;;;;;;482640;245;28904;-72
2023/12/25 03:58:09;;;;;;;2.40;1.50;;;7.30;99.90;;;;;;492966;240;27588;-73
2023/12/25 04:00:10;;;;;;;2.00;1.40;;;7.30;99.90;;;;;;482679;246;27724;-73
2023/12/25 04:02:12;;;;;;;1.57;1.47;;;7.30;99.90;;;;;;492986;240;27825;-74
2023/12/25 04:04:13;;;;;;;1.97;1.13;;;7.30;99.90;;;;;;482640;245;27847;-73
2023/12/25 04:06:14;;;;;;;1.30;1.30;;;7.30;99.90;;;;;;492994;240;28048;-73
2023/12/25 04:08:15;;;;;;;1.37;1.27;;;7.30;99.90;;;;;;482707;246;28378;-75
2023/12/25 04:10:16;;;;;;;1.77;1.67;;;7.30;99.90;;;;;;493049;240;28294;-73
2023/12/25 04:12:18;;;;;;;1.35;1.25;;;7.30;99.90;;;;;;482686;244;28250;-73
2023/12/25 04:14:19;;;;;;;3.07;1.60;;;7.30;99.90;;;;;;492906;240;27480;-73
2023/12/25 04:16:20;;;;;;;1.30;1.20;;;7.30;99.90;;;;;;482637;245;28018;-73
2023/12/25 04:18:21;;;;;;;1.83;1.20;;;7.30;99.90;;;;;;493016;240;28143;-75
2023/12/25 04:20:23;;;;;;;2.10;1.47;;;7.30;99.90;;;;;;482674;246;27756;-73
2023/12/25 04:22:24;;;;;;;1.10;1.07;;;7.30;99.90;;;;;;492972;240;28066;-73
2023/12/25 04:24:25;;;;;;;3.13;1.40;;;7.30;99.90;;;;;;482610;245;27957;-73
2023/12/25 04:26:26;;;;;;;3.03;1.50;;;7.40;99.90;;;;;;493003;240;27788;-73
2023/12/25 04:28:28;;;;;;;1.83;1.30;;;7.30;99.90;;;;;;482695;245;27925;-76
2023/12/25 04:30:29;;;;;;;1.30;1.20;;;7.30;99.90;;;;;;492975;240;28407;-72
2023/12/25 04:32:30;;;;;;;3.83;1.57;;;7.30;99.90;;;;;;482663;244;27812;-73
2023/12/25 04:34:31;;;;;;;1.70;1.60;;;7.30;99.90;;;;;;492944;240;27916;-73
2023/12/25 04:36:33;;;;;;;1.40;1.30;;;7.30;99.90;;;;;;482697;246;27864;-72
2023/12/25 04:38:35;;;;;;;2.80;1.40;;;7.30;99.90;;;;;;492995;240;27726;-73
2023/12/25 04:40:35;;;;;;;1.30;1.30;;;7.30;99.90;;;;;;482624;245;27863;-73
2023/12/25 04:42:36;;;;;;;1.20;1.20;;;7.30;99.90;;;;;;492984;240;28521;-73
2023/12/25 04:44:38;;;;;;;1.70;1.10;;;7.30;99.90;;;;;;482642;246;28443;-74
2023/12/25 04:46:42;;;;;;;1.27;1.03;;;7.30;99.90;;;;;;493013;240;28341;-73
2023/12/25 04:48:40;;;;;;;1.20;1.10;;;7.30;99.90;;;;;;474143;250;28548;-73
2023/12/25 04:50:41;;;;;;;1.43;1.33;;;7.30;99.90;;;;;;492949;240;28480;-73
2023/12/25 04:52:43;;;;;;;1.00;1.00;;;7.30;99.90;;;;;;482659;246;28405;-74
2023/12/25 04:54:44;;;;;;;1.83;1.10;;;7.30;99.90;;;;;;492986;240;27680;-75
2023/12/25 04:56:45;;;;;;;1.20;1.20;;;7.30;99.90;;;;;;482720;246;28008;-73
2023/12/25 04:58:46;;;;;;;1.30;1.20;;;7.30;99.90;;;;;;492979;240;28177;-73
2023/12/25 05:00:48;;;;;;;5.10;1.57;;;7.30;99.90;;;;;;482619;244;27862;-73
2023/12/25 05:02:49;;;;;;;2.73;1.20;;;7.30;99.90;;;;;;492981;240;27574;-73
2023/12/25 05:04:50;;;;;;;1.80;1.00;;;7.30;99.90;;;;;;482647;246;27858;-75
2023/12/25 05:06:51;;;;;;;1.13;1.13;;;7.30;99.90;;;;;;492984;240;27833;-73
2023/12/25 05:08:53;;;;;;;1.30;1.20;;;7.30;99.90;;;;;;482685;245;27970;-73
2023/12/25 05:10:54;;;;;;;1.70;1.30;;;7.30;99.90;;;;;;492952;240;27660;-73
2023/12/25 05:12:55;;;;;;;1.30;1.13;;;7.30;99.90;;;;;;482662;244;28723;-73
2023/12/25 05:14:56;;;;;;;1.27;1.27;;;7.30;99.90;;;;;;492972;240;27909;-74
2023/12/25 05:16:58;;;;;;;1.57;1.20;;;7.30;99.90;;;;;;482648;246;27868;-73
2023/12/25 05:18:59;;;;;;;1.30;1.20;;;7.30;99.90;;;;;;492984;240;27991;-73
2023/12/25 05:21:00;;;;;;;1.40;1.30;;;7.30;99.90;;;;;;482657;245;28658;-76
2023/12/25 05:23:01;;;;;;;2.73;1.00;;;7.30;99.90;;;;;;492948;240;28510;-73
2023/12/25 05:25:03;;;;;;;5.20;1.27;;;7.30;99.90;;;;;;482682;245;28056;-73
2023/12/25 05:27:04;;;;;;;0.97;0.97;;;7.30;99.90;;;;;;492976;240;29027;-72
2023/12/25 05:29:05;;;;;;;2.33;1.43;;;7.30;99.90;;;;;;482670;246;28369;-73
2023/12/25 05:31:06;;;;;;;1.30;1.20;;;7.30;99.90;;;;;;492988;240;27818;-75
2023/12/25 05:33:08;;;;;;;1.27;1.17;;;7.30;99.90;;;;;;482621;245;27490;-73
2023/12/25 05:35:09;;;;;;;1.00;1.00;;;7.30;99.90;;;;;;492993;240;27725;-73
2023/12/25 05:37:10;;;;;;;1.23;1.23;;;7.30;99.90;;;;;;482651;244;27686;-73
2023/12/25 05:39:11;;;;;;;1.10;1.10;;;7.30;99.90;;;;;;492978;240;27794;-73
2023/12/25 05:41:13;;;;;;;4.40;1.70;;;7.30;99.90;;;;;;482691;245;27784;-75
2023/12/25 05:43:14;;;;;;;1.23;1.23;;;7.30;99.90;;;;;;492971;240;27922;-73
2023/12/25 05:45:15;;;;;;;1.73;1.30;;;7.30;99.90;;;;;;482667;245;28440;-73
2023/12/25 05:47:16;;;;;;;1.67;1.50;;;7.30;99.90;;;;;;492973;240;28636;-73
2023/12/25 05:49:18;;;;;;;3.47;1.40;;;7.30;99.90;;;;;;482693;246;28164;-73
2023/12/25 05:51:19;;;;;;;2.33;1.30;;;7.30;99.90;;;;;;492987;240;29622;-73
2023/12/25 05:53:20;;;;;;;1.33;1.20;;;7.30;99.90;;;;;;482552;245;28032;-73
2023/12/25 05:55:21;;;;;;;1.50;1.40;;;7.30;99.90;;;;;;492976;240;28628;-73
2023/12/25 05:57:23;;;;;;;1.30;1.20;;;7.30;99.90;;;;;;482686;245;27924;-73
2023/12/25 05:59:24;;;;;;;1.40;1.30;;;7.30;99.90;;;;;;493024;240;27925;-73
2023/12/25 06:01:25;;;;;;;1.40;1.30;;;7.30;99.90;;;;;;482660;245;27532;-73
2023/12/25 06:03:26;;;;;;;1.57;1.47;;;7.30;99.90;;;;;;492977;240;27819;-73
2023/12/25 06:05:28;;;;;;;2.30;1.57;;;7.30;99.90;;;;;;482679;245;27808;-73
2023/12/25 06:07:29;;;;;;;2.20;1.40;;;7.30;99.90;;;;;;493016;240;28400;-76
2023/12/25 06:09:30;;;;;;;1.40;1.30;;;7.30;99.90;;;;;;482707;245;27921;-73
2023/12/25 06:11:31;;;;;;;2.03;1.40;;;7.30;99.90;;;;;;492970;240;27859;-73
2023/12/25 06:13:33;;;;;;;1.63;1.30;;;7.30;99.90;;;;;;482630;246;27803;-72
2023/12/25 06:15:34;;;;;;;1.40;1.30;;;7.30;99.90;;;;;;493023;240;27785;-72
2023/12/25 06:17:35;;;;;;;2.17;1.50;;;7.30;99.90;;;;;;482724;245;29430;-76
2023/12/25 06:19:36;;;;;;;1.50;1.40;;;7.30;99.90;;;;;;493013;240;28207;-72
2023/12/25 06:21:38;;;;;;;1.60;1.50;;;7.30;99.90;;;;;;482637;245;28356;-73
2023/12/25 06:23:39;;;;;;;1.47;1.27;;;7.30;99.90;;;;;;492958;240;28675;-73
2023/12/25 06:25:40;;;;;;;1.77;1.50;;;7.30;99.90;;;;;;482614;245;27623;-73
2023/12/25 06:27:41;;;;;;;1.60;1.50;;;7.30;99.90;;;;;;492992;240;27779;-73
2023/12/25 06:29:43;;;;;;;1.10;1.10;;;7.20;99.90;;;;;;492984;240;27907;-72
2023/12/25 06:31:44;;;;;;;1.80;1.70;;;7.20;99.90;;;;;;482650;245;27972;-73
2023/12/25 06:33:45;;;;;;;1.87;1.70;;;7.20;99.90;;;;;;492935;240;27457;-73
2023/12/25 06:35:46;;;;;;;1.70;1.60;;;7.20;99.90;;;;;;482683;246;28731;-73
2023/12/25 06:37:48;;;;;;;1.80;1.40;;;7.20;99.90;;;;;;492988;240;28074;-73
2023/12/25 06:39:49;;;;;;;1.63;1.50;;;7.30;99.90;;;;;;482665;246;28540;-73
2023/12/25 06:41:50;;;;;;;1.43;1.33;;;7.20;99.90;;;;;;492957;240;27976;-73
2023/12/25 06:43:52;;;;;;;1.40;1.30;;;7.20;99.90;;;;;;482661;245;28872;-76
2023/12/25 06:45:54;;;;;;;1.47;1.37;;;7.20;99.90;;;;;;492992;240;28005;-76
2023/12/25 06:47:55;;;;;;;1.50;1.23;;;7.20;99.90;;;;;;482665;245;28526;-73
2023/12/25 06:49:56;;;;;;;1.60;1.50;;;7.20;99.90;;;;;;492978;240;28196;-73
2023/12/25 06:51:58;;;;;;;1.50;1.40;;;7.30;99.90;;;;;;482644;246;28213;-73
2023/12/25 06:53:59;;;;;;;1.40;1.30;;;7.20;99.90;;;;;;492953;240;28490;-73
2023/12/25 06:56:00;;;;;;;6.83;1.80;;;7.20;99.90;;;;;;482679;245;28372;-75
2023/12/25 06:58:01;;;;;;;1.50;1.40;;;7.20;99.90;;;;;;492971;240;28268;-73
2023/12/25 07:00:03;;;;;;;1.50;1.40;;;7.20;99.90;;;;;;482643;245;28532;-73
2023/12/25 07:02:04;;;;;;;2.17;1.30;;;7.20;99.90;;;;;;492943;240;27833;-73
2023/12/25 07:04:06;;;;;;;1.40;1.30;;;7.20;99.90;;;;;;482653;246;27946;-73
2023/12/25 07:06:06;;;;;;;1.73;1.63;;;7.20;99.90;;;;;;492880;241;27838;-73
2023/12/25 07:08:07;;;;;;;5.83;2.87;;;7.20;99.90;;;;;;492967;240;27541;-74
2023/12/25 07:10:09;;;;;;;2.20;1.67;;;7.20;99.90;;;;;;482667;246;27788;-73
2023/12/25 07:12:10;;;;;;;3.73;1.50;;;7.20;99.90;;;;;;493008;240;27600;-73
2023/12/25 07:14:11;;;;;;;1.63;1.40;;;7.20;99.90;;;;;;482611;246;28820;-72
2023/12/25 07:16:12;;;;;;;3.57;1.70;;;7.20;99.90;;;;;;492995;240;28052;-73
2023/12/25 07:18:14;;;;;;;1.50;1.40;;;7.20;99.90;;;;;;482654;244;27737;-73
2023/12/25 07:20:15;;;;;;;2.50;1.93;;;7.20;99.90;;;;;;492977;240;27956;-73
2023/12/25 07:22:16;;;;;;;1.70;1.60;;;7.20;99.90;;;;;;482666;245;27858;-76
2023/12/25 07:24:17;;;;;;;2.07;1.70;;;7.20;99.90;;;;;;492955;240;27756;-73
2023/12/25 07:26:19;;;;;;;1.40;1.30;;;7.20;99.90;;;;;;482702;245;28740;-73
2023/12/25 07:28:21;;;;;;;1.57;1.50;;;7.20;99.90;;;;;;493024;240;28268;-72
2023/12/25 07:30:21;;;;;;;3.90;1.57;;;7.20;99.90;;;;;;482703;245;27499;-73
2023/12/25 07:32:22;;;;;;;1.40;1.30;;;7.20;99.90;;;;;;493044;240;27689;-74
2023/12/25 07:34:24;;;;;;;1.90;1.43;;;7.20;99.90;;;;;;482652;246;28190;-73
2023/12/25 07:36:25;;;;;;;1.33;1.23;;;7.20;99.90;;;;;;492998;240;28102;-73
2023/12/25 07:38:26;;;;;;;2.80;1.40;;;7.20;99.90;;;;;;482691;245;27993;-72
2023/12/25 07:40:27;;;;;;;3.13;1.30;;;7.20;99.90;;;;;;492991;240;27879;-74
2023/12/25 07:42:29;;;;;;;1.83;1.60;;;7.20;99.90;;;;;;482725;245;28146;-73
2023/12/25 07:44:30;;;;;;;1.57;1.47;;;7.20;99.90;;;;;;492969;240;27968;-73
2023/12/25 07:46:31;;;;;;;1.30;1.23;;;7.20;99.90;;;;;;482660;246;27869;-73
2023/12/25 07:48:32;;;;;;;2.90;1.33;;;7.20;99.90;;;;;;492999;240;27701;-74
2023/12/25 07:50:34;;;;;;;1.63;1.27;;;7.20;99.90;;;;;;492969;240;28006;-73
2023/12/25 07:52:35;;;;;;;1.17;1.07;;;7.20;99.90;;;;;;482693;245;28345;-73
2023/12/25 07:54:36;;;;;;;1.10;1.10;;;7.30;99.90;;;;;;492945;240;28463;-73
2023/12/25 07:56:37;;;;;;;2.30;1.13;;;7.30;99.90;;;;;;482668;245;28483;-73
2023/12/25 07:58:39;;;;;;;1.23;1.13;;;7.20;99.90;;;;;;493002;240;27998;-75
2023/12/25 08:00:42;;;;;;;2.00;1.40;;;7.30;99.90;;;;;;482628;244;28369;-73
2023/12/25 08:02:41;;;;;;;1.20;1.20;;;7.30;99.90;;;;;;492848;241;27923;-73
2023/12/25 08:04:42;;;;;;;1.80;1.30;;;7.20;99.90;;;;;;492926;240;27880;-73
2023/12/25 08:06:44;;;;;;;2.20;1.17;;;7.20;99.90;;;;;;482692;244;27832;-73
2023/12/25 08:08:45;;;;;;;1.20;1.10;;;7.30;99.90;;;;;;492986;240;28016;-74
2023/12/25 08:10:46;;;;;;;1.10;1.10;;;7.30;99.90;;;;;;482631;246;27751;-73
2023/12/25 08:12:47;;;;;;;1.07;1.07;;;7.30;99.90;;;;;;492909;241;27659;-73
2023/12/25 08:14:49;;;;;;;1.43;1.20;;;7.30;99.90;;;;;;492950;240;27892;-73
2023/12/25 08:16:50;;;;;;;1.63;1.53;;;7.30;99.90;;;;;;482688;246;27984;-73
2023/12/25 08:18:51;;;;;;;1.03;1.03;;;7.30;99.90;;;;;;492991;240;27891;-74
2023/12/25 08:20:52;;;;;;;2.10;1.20;;;7.30;99.90;;;;;;492952;240;27791;-73
2023/12/25 08:22:54;;;;;;;2.23;1.30;;;7.30;99.90;;;;;;482650;245;28023;-72
2023/12/25 08:24:55;;;;;;;1.20;1.10;;;7.30;99.90;;;;;;492948;240;28219;-73
2023/12/25 08:26:56;;;;;;;1.20;1.20;;;7.30;99.90;;;;;;482696;245;27568;-73
2023/12/25 08:28:57;;;;;;;1.10;1.10;;;7.30;99.90;;;;;;493016;240;27621;-73
2023/12/25 08:30:59;;;;;;;1.00;1.00;;;7.30;99.90;;;;;;482654;245;28447;-73
2023/12/25 08:33:00;;;;;;;1.60;1.10;;;7.30;99.90;;;;;;492977;240;28802;-73
2023/12/25 08:35:01;;;;;;;1.00;1.00;;;7.30;99.90;;;;;;482722;245;28506;-75
2023/12/25 08:37:03;;;;;;;1.17;1.10;;;7.30;99.90;;;;;;493023;240;28348;-73
2023/12/25 08:39:04;;;;;;;1.13;0.90;;;7.30;99.90;;;;;;482685;245;28107;-75
2023/12/25 08:41:05;;;;;;;0.90;0.90;;;7.30;99.90;;;;;;492971;240;28749;-73
2023/12/25 08:43:06;;;;;;;1.67;1.07;;;7.30;99.90;;;;;;482623;245;27899;-73
2023/12/25 08:45:07;;;;;;;1.40;1.17;;;7.40;99.90;;;;;;493012;240;28777;-76
2023/12/25 08:47:09;;;;;;;1.10;1.10;;;7.40;99.90;;;;;;482672;246;27791;-73
2023/12/25 08:49:10;;;;;;;1.60;1.00;;;7.40;99.90;;;;;;493000;238;28810;-73
2023/12/25 08:51:11;;;;;;;1.12;1.02;;;7.40;99.90;;;;;;482646;246;27968;-73
2023/12/25 08:53:12;;;;;;;0.83;0.83;;;7.40;99.90;;;;;;492970;240;27403;-73
2023/12/25 08:55:14;;;;;;;1.20;1.00;;;7.40;99.90;;;;;;482690;245;27449;-74
2023/12/25 08:57:15;;;;;;;1.07;1.03;;;7.40;99.90;;;;;;493001;240;27875;-73
2023/12/25 08:59:17;;;;;;;1.00;1.00;;;7.40;99.90;;;;;;482646;245;27775;-73
2023/12/25 09:01:17;;;;;;;1.10;1.10;;;7.40;99.90;;;;;;492914;240;27811;-73
2023/12/25 09:03:19;;;;;;;1.10;1.10;;;7.40;99.90;;;;;;482656;246;28525;-73
2023/12/25 09:05:20;;;;;;;1.17;1.07;;;7.50;99.90;;;;;;493008;240;28231;-74
2023/12/25 09:07:21;;;;;;;1.20;1.10;;;7.40;99.90;;;;;;482646;244;28329;-73
2023/12/25 09:09:23;;;;;;;1.43;1.10;;;7.50;99.90;;;;;;493003;240;28198;-73
2023/12/25 09:11:24;;;;;;;1.30;1.20;;;7.50;99.90;;;;;;482672;245;28540;-75
2023/12/25 09:13:25;;;;;;;1.23;1.12;;;7.50;99.90;;;;;;492999;240;27914;-73
2023/12/25 09:15:26;;;;;;;1.10;1.10;;;7.50;99.90;;;;;;482694;246;27541;-73
2023/12/25 09:17:27;;;;;;;1.10;1.10;;;7.50;99.90;;;;;;492979;240;27815;-72
2023/12/25 09:19:29;;;;;;;1.20;1.20;;;7.50;99.90;;;;;;482668;246;27948;-73
2023/12/25 09:21:30;;;;;;;1.10;1.10;;;7.50;99.90;;;;;;492924;240;27981;-74
2023/12/25 09:23:31;;;;;;;2.60;1.30;;;7.50;99.90;;;;;;482533;245;27724;-73
2023/12/25 09:25:32;;;;;;;1.27;1.17;;;7.50;99.90;;;;;;493034;240;27691;-73
2023/12/25 09:27:34;;;;;;;1.10;1.10;;;7.50;99.90;;;;;;482698;245;27726;-73
2023/12/25 09:29:35;;;;;;;1.10;1.10;;;7.40;99.90;;;;;;493013;240;27384;-73
2023/12/25 09:31:36;;;;;;;1.53;1.43;;;7.40;99.90;;;;;;482725;246;27896;-75
2023/12/25 09:33:37;;;;;;;1.33;1.13;;;7.40;99.90;;;;;;492931;240;27557;-73
2023/12/25 09:35:39;;;;;;;1.00;1.00;;;7.40;99.90;;;;;;482720;244;27898;-73
2023/12/25 09:37:40;;;;;;;1.20;1.20;;;7.50;99.90;;;;;;493015;240;28334;-73
2023/12/25 09:39:43;;;;;;;2.20;1.07;;;7.50;99.90;;;;;;482545;246;28340;-73
2023/12/25 09:41:42;;;;;;;1.00;1.00;;;7.50;99.90;;;;;;492810;241;28551;-74
2023/12/25 09:43:47;;;;;;;1.00;1.00;;;7.50;99.90;;;;;;492968;240;28356;-72
2023/12/25 09:45:48;;;;;;;1.17;1.10;;;7.50;99.90;;;;;;482632;244;27902;-75
2023/12/25 09:47:49;;;;;;;1.50;1.40;;;7.50;99.90;;;;;;492965;240;27817;-74
2023/12/25 09:49:50;;;;;;;2.70;0.97;;;7.60;99.90;;;;;;482654;245;28082;-74
2023/12/25 09:51:52;;;;;;;1.23;1.10;;;7.60;99.90;;;;;;492973;240;27946;-73
2023/12/25 09:53:53;;;;;;;1.57;1.00;;;7.60;99.90;;;;;;482619;245;27441;-72
2023/12/25 09:55:54;;;;;;;1.30;1.30;;;7.70;99.90;;;;;;492994;240;27833;-74
2023/12/25 09:57:55;;;;;;;1.10;1.10;;;7.70;99.90;;;;;;482670;246;27951;-73
2023/12/25 09:59:57;;;;;;;1.00;1.00;;;7.70;99.90;;;;;;493015;240;28582;-73
2023/12/25 10:01:58;;;;;;;0.87;0.87;;;7.70;99.90;;;;;;482681;245;29194;-73
2023/12/25 10:03:59;;;;;;;1.30;1.20;;;7.70;99.90;;;;;;492990;240;28098;-73
2023/12/25 10:06:02;;;;;;;1.13;1.10;;;7.70;99.90;;;;;;482712;245;28529;-75
2023/12/25 10:08:02;;;;;;;1.30;1.20;;;7.70;99.90;;;;;;492966;241;27950;-73
2023/12/25 10:10:05;;;;;;;1.10;1.10;;;7.70;99.90;;;;;;493027;240;27845;-73
2023/12/25 10:12:04;;;;;;;1.80;1.20;;;7.70;99.90;;;;;;482601;241;27970;-73
2023/12/25 10:14:05;;;;;;;1.30;1.20;;;7.70;99.90;;;;;;493001;240;27466;-73
2023/12/25 10:16:07;;;;;;;1.00;1.00;;;7.70;99.90;;;;;;482717;245;27878;-73
2023/12/25 10:18:08;;;;;;;1.10;1.10;;;7.70;99.90;;;;;;493014;240;27442;-73
2023/12/25 10:20:09;;;;;;;1.77;1.43;;;7.80;99.90;;;;;;482699;245;27406;-73
2023/12/25 10:22:10;;;;;;;1.10;1.10;;;7.80;99.90;;;;;;493008;240;27935;-73
2023/12/25 10:24:12;;;;;;;1.10;1.10;;;7.80;99.90;;;;;;482672;246;28062;-73
2023/12/25 10:26:13;;;;;;;1.27;1.17;;;7.80;99.90;;;;;;493014;240;27848;-74
2023/12/25 10:28:14;;;;;;;1.17;1.17;;;7.70;99.90;;;;;;482651;245;27722;-73
2023/12/25 10:30:16;;;;;;;1.40;1.30;;;7.70;99.90;;;;;;493013;240;28103;-74
2023/12/25 10:32:17;;;;;;;1.13;1.13;;;7.70;99.90;;;;;;482679;245;27835;-74
2023/12/25 10:34:18;;;;;;;1.30;1.00;;;7.70;99.90;;;;;;492976;240;27952;-73
2023/12/25 10:36:19;;;;;;;1.83;1.30;;;7.70;99.90;;;;;;482673;245;28438;-74
2023/12/25 10:38:20;;;;;;;2.50;1.80;;;7.70;99.90;;;;;;492972;240;28600;-73
2023/12/25 10:40:22;;;;;;;2.10;1.40;;;7.70;99.90;;;;;;482651;246;28348;-73